createdAt,value
2022-12-08T00:01:13.606Z,8.02
2022-12-08T00:03:41.854Z,7.68
2022-12-08T00:06:25.514Z,6.22
2022-12-08T00:08:52.588Z,6.47
2022-12-08T00:11:19.926Z,6.70
2022-12-08T00:13:46.779Z,7.25
2022-12-08T00:16:13.619Z,6.20
2022-12-08T00:18:40.521Z,6.90
2022-12-08T00:21:07.410Z,6.65
2022-12-08T00:23:34.386Z,8.00
2022-12-08T00:26:06.028Z,7.10
2022-12-08T00:28:34.721Z,8.75
2022-12-08T00:31:08.717Z,7.10
2022-12-08T00:33:36.561Z,7.38
2022-12-08T00:36:10.830Z,5.47
2022-12-08T00:38:39.039Z,6.18
2022-12-08T00:41:21.233Z,7.00
2022-12-08T00:43:48.105Z,6.20
2022-12-08T00:46:14.921Z,8.77
2022-12-08T00:48:41.730Z,5.53
2022-12-08T00:51:08.508Z,6.85
2022-12-08T00:53:35.446Z,6.50
2022-12-08T00:56:02.150Z,6.78
2022-12-08T00:58:29.023Z,5.38
2022-12-08T01:00:55.890Z,4.57
2022-12-08T01:03:22.907Z,6.05
2022-12-08T01:05:49.662Z,4.30
2022-12-08T01:08:16.552Z,4.20
2022-12-08T01:10:43.401Z,6.22
2022-12-08T01:13:10.293Z,4.53
2022-12-08T01:15:37.223Z,6.00
2022-12-08T01:18:04.304Z,5.45
2022-12-08T01:20:31.052Z,5.50
2022-12-08T01:22:57.882Z,4.82
2022-12-08T01:25:24.661Z,5.23
2022-12-08T01:27:52.973Z,5.57
2022-12-08T01:30:21.221Z,5.82
2022-12-08T01:32:48.236Z,6.82
2022-12-08T01:35:15.535Z,6.90
2022-12-08T01:37:42.292Z,6.53
2022-12-08T01:40:09.544Z,5.78
2022-12-08T01:42:36.408Z,5.20
2022-12-08T01:45:07.871Z,5.82
2022-12-08T01:47:41.502Z,6.32
2022-12-08T01:50:12.120Z,5.70
2022-12-08T01:52:51.793Z,6.10
2022-12-08T01:55:32.087Z,7.15
2022-12-08T01:58:39.665Z,6.78
2022-12-08T02:01:07.214Z,5.50
2022-12-08T02:03:42.094Z,4.77
2022-12-08T02:06:10.836Z,5.40
2022-12-08T02:08:41.127Z,6.40
2022-12-08T02:11:12.343Z,5.57
2022-12-08T02:13:41.674Z,6.43
2022-12-08T02:16:30.288Z,5.40
2022-12-08T02:19:30.808Z,7.72
2022-12-08T02:22:03.854Z,8.15
2022-12-08T02:24:49.419Z,6.03
2022-12-08T02:27:40.836Z,5.60
2022-12-08T02:30:11.814Z,5.70
2022-12-08T02:33:06.206Z,5.07
2022-12-08T02:35:53.667Z,5.38
2022-12-08T02:38:27.225Z,5.70
2022-12-08T02:41:30.597Z,6.93
2022-12-08T02:44:17.344Z,6.03
2022-12-08T02:46:55.900Z,5.18
2022-12-08T02:49:29.716Z,5.57
2022-12-08T02:52:25.297Z,5.22
2022-12-08T02:54:55.429Z,5.80
2022-12-08T02:57:46.135Z,5.27
2022-12-08T03:00:18.810Z,5.53
2022-12-08T03:03:00.144Z,5.90
2022-12-08T03:05:41.405Z,5.88
2022-12-08T03:08:25.280Z,5.68
2022-12-08T03:11:11.641Z,5.53
2022-12-08T03:13:46.498Z,6.03
2022-12-08T03:16:18.535Z,6.95
2022-12-08T03:18:50.811Z,7.90
2022-12-08T03:21:21.238Z,6.30
2022-12-08T03:23:52.273Z,6.67
2022-12-08T03:26:27.334Z,8.57
2022-12-08T03:28:54.587Z,6.35
2022-12-08T03:31:25.479Z,7.10
2022-12-08T03:33:56.862Z,7.05
2022-12-08T03:36:24.251Z,6.27
2022-12-08T03:38:53.676Z,7.55
2022-12-08T03:41:22.413Z,7.10
2022-12-08T03:43:53.645Z,6.13
2022-12-08T03:48:49.069Z,7.70
2022-12-08T03:51:16.723Z,7.47
2022-12-08T03:53:44.891Z,8.23
2022-12-08T03:56:28.129Z,7.07
2022-12-08T03:58:55.516Z,7.35
2022-12-08T04:01:23.205Z,7.40
2022-12-08T04:03:50.274Z,6.70
2022-12-08T04:06:17.785Z,6.78
2022-12-08T04:08:44.633Z,7.97
2022-12-08T04:11:11.814Z,8.57
2022-12-08T04:13:40.163Z,7.20
2022-12-08T04:16:08.597Z,6.65
2022-12-08T04:18:36.050Z,7.00
2022-12-08T04:21:02.891Z,6.50
2022-12-08T04:23:29.719Z,6.63
2022-12-08T04:25:56.490Z,6.97
2022-12-08T04:28:23.358Z,7.57
2022-12-08T04:30:50.256Z,6.88
2022-12-08T04:33:17.900Z,7.22
2022-12-08T04:35:44.787Z,8.13
2022-12-08T04:38:11.879Z,6.57
2022-12-08T04:40:39.063Z,6.93
2022-12-08T04:43:05.940Z,6.60
2022-12-08T04:45:33.457Z,6.45
2022-12-08T04:48:01.560Z,7.70
2022-12-08T04:50:28.811Z,7.43
2022-12-08T04:52:55.557Z,8.02
2022-12-08T04:55:22.405Z,6.65
2022-12-08T04:57:50.009Z,8.15
2022-12-08T05:00:17.889Z,6.13
2022-12-08T05:02:44.748Z,6.83
2022-12-08T05:05:11.688Z,7.32
2022-12-08T05:07:38.467Z,8.32
2022-12-08T05:10:06.216Z,9.23
2022-12-08T05:12:33.575Z,7.35
2022-12-08T05:15:00.353Z,7.00
2022-12-08T05:17:27.384Z,8.70
2022-12-08T05:19:54.621Z,8.23
2022-12-08T05:22:21.897Z,8.55
2022-12-08T05:24:48.984Z,8.52
2022-12-08T05:27:16.625Z,8.10
2022-12-08T05:29:43.402Z,8.43
2022-12-08T05:32:10.212Z,8.30
2022-12-08T05:34:37.003Z,8.35
2022-12-08T05:37:04.262Z,8.30
2022-12-08T05:39:31.152Z,7.97
2022-12-08T05:41:57.881Z,7.75
2022-12-08T05:44:24.685Z,8.00
2022-12-08T05:46:51.988Z,7.88
2022-12-08T05:49:18.806Z,8.77
2022-12-08T05:51:45.565Z,8.00
2022-12-08T05:54:12.349Z,11.40
2022-12-08T05:56:39.120Z,8.90
2022-12-08T05:59:07.149Z,8.68
2022-12-08T06:01:34.682Z,9.90
2022-12-08T06:04:03.556Z,9.67
2022-12-08T06:06:31.626Z,10.80
2022-12-08T06:08:58.530Z,7.65
2022-12-08T06:11:30.461Z,8.43
2022-12-08T06:13:58.631Z,8.25
2022-12-08T06:16:26.967Z,9.23
2022-12-08T06:18:55.322Z,8.20
2022-12-08T06:21:22.128Z,7.72
2022-12-08T06:23:50.629Z,8.35
2022-12-08T06:26:18.125Z,7.68
2022-12-08T06:28:45.131Z,7.13
2022-12-08T06:31:21.127Z,6.72
2022-12-08T06:33:48.991Z,8.13
2022-12-08T06:36:18.298Z,6.88
2022-12-08T06:38:45.112Z,6.97
2022-12-08T06:41:12.754Z,7.47
2022-12-08T06:43:40.004Z,7.50
2022-12-08T06:46:10.345Z,7.57
2022-12-08T06:48:37.194Z,7.13
2022-12-08T06:51:12.694Z,7.85
2022-12-08T06:53:40.026Z,7.87
2022-12-08T06:56:07.423Z,8.65
2022-12-08T06:58:35.357Z,8.25
2022-12-08T07:01:07.422Z,7.22
2022-12-08T07:03:34.515Z,7.53
2022-12-08T07:06:04.131Z,7.87
2022-12-08T07:08:32.344Z,8.05
2022-12-08T07:10:59.166Z,7.90
2022-12-08T07:13:25.943Z,7.45
2022-12-08T07:15:52.733Z,9.57
2022-12-08T07:18:19.489Z,7.23
2022-12-08T07:20:46.220Z,7.40
2022-12-08T07:23:12.977Z,7.20
2022-12-08T07:25:39.774Z,9.60
2022-12-08T07:28:11.087Z,9.02
2022-12-08T07:30:39.315Z,9.23
2022-12-08T07:33:06.273Z,9.18
2022-12-08T07:35:35.005Z,9.70
2022-12-08T07:38:02.586Z,7.88
2022-12-08T07:40:29.437Z,8.70
2022-12-08T07:42:56.176Z,8.53
2022-12-08T07:45:26.910Z,9.25
2022-12-08T07:47:57.989Z,10.02
2022-12-08T07:50:24.713Z,10.05
2022-12-08T07:52:51.506Z,8.40
2022-12-08T07:55:18.226Z,8.17
2022-12-08T07:57:44.966Z,8.68
2022-12-08T08:00:12.338Z,9.18
2022-12-08T08:02:39.278Z,8.65
2022-12-08T08:05:06.648Z,10.40
2022-12-08T08:07:33.526Z,9.80
2022-12-08T08:10:00.405Z,10.07
2022-12-08T08:12:31.713Z,8.95
2022-12-08T08:15:01.335Z,9.60
2022-12-08T08:17:29.482Z,10.63
2022-12-08T08:19:57.058Z,9.20
2022-12-08T08:22:25.252Z,10.63
2022-12-08T08:24:52.600Z,10.23
2022-12-08T08:27:19.910Z,8.52
2022-12-08T08:29:46.771Z,8.85
2022-12-08T08:32:13.531Z,9.87
2022-12-08T08:34:40.305Z,9.05
2022-12-08T08:37:07.071Z,9.07
2022-12-08T08:39:33.996Z,8.25
2022-12-08T08:42:00.893Z,10.18
2022-12-08T08:44:27.728Z,9.80
2022-12-08T08:46:54.509Z,8.63
2022-12-08T08:49:21.492Z,9.77
2022-12-08T08:51:48.271Z,9.90
2022-12-08T08:54:16.010Z,9.70
2022-12-08T08:56:42.802Z,9.63
2022-12-08T08:59:10.583Z,10.50
2022-12-08T09:01:37.391Z,9.60
2022-12-08T09:04:04.311Z,11.13
2022-12-08T09:06:31.416Z,10.15
2022-12-08T09:08:58.223Z,9.67
2022-12-08T09:11:24.969Z,13.07
2022-12-08T09:13:53.373Z,12.75
2022-12-08T09:16:21.256Z,12.45
2022-12-08T09:18:48.640Z,13.60
2022-12-08T09:21:17.699Z,14.87
2022-12-08T09:23:44.409Z,12.50
2022-12-08T09:26:11.232Z,15.00
2022-12-08T09:28:38.278Z,15.32
2022-12-08T09:31:05.258Z,11.82
2022-12-08T09:33:33.440Z,21.27
2022-12-08T09:36:04.162Z,19.10
2022-12-08T09:38:31.830Z,14.15
2022-12-08T09:40:59.915Z,12.27
2022-12-08T09:43:50.785Z,12.00
2022-12-08T09:46:19.011Z,11.83
2022-12-08T09:48:53.906Z,11.85
2022-12-08T09:51:21.933Z,10.65
2022-12-08T09:53:54.763Z,11.15
2022-12-08T09:56:33.239Z,11.38
2022-12-08T09:59:05.573Z,9.77
2022-12-08T10:01:35.923Z,8.90
2022-12-08T10:04:02.799Z,9.90
2022-12-08T10:06:54.710Z,8.02
2022-12-08T10:09:39.867Z,8.70
2022-12-08T10:12:28.183Z,9.67
2022-12-08T10:14:57.546Z,7.93
2022-12-08T10:17:26.348Z,9.88
2022-12-08T10:20:20.348Z,10.30
2022-12-08T10:22:52.401Z,7.78
2022-12-08T10:25:30.410Z,8.60
2022-12-08T10:27:58.880Z,8.98
2022-12-08T10:30:25.655Z,8.27
2022-12-08T10:32:54.056Z,8.38
2022-12-08T10:35:22.742Z,8.32
2022-12-08T10:38:01.671Z,9.70
2022-12-08T10:40:39.084Z,9.40
2022-12-08T10:43:16.089Z,9.20
2022-12-08T10:45:42.839Z,8.65
2022-12-08T10:48:24.171Z,8.50
2022-12-08T10:50:58.840Z,9.43
2022-12-08T10:53:33.564Z,7.15
2022-12-08T10:56:03.046Z,9.70
2022-12-08T10:58:41.888Z,9.70
2022-12-08T11:01:21.549Z,9.32
2022-12-08T11:03:55.441Z,8.93
2022-12-08T11:06:30.654Z,11.15
2022-12-08T11:09:03.200Z,9.85
2022-12-08T11:11:51.676Z,10.13
2022-12-08T11:14:42.427Z,11.05
2022-12-08T11:17:11.837Z,12.57
2022-12-08T11:19:40.159Z,10.20
2022-12-08T11:22:31.305Z,11.75
2022-12-08T11:25:02.200Z,12.27
2022-12-08T11:27:29.262Z,10.95
2022-12-08T11:29:56.452Z,10.63
2022-12-08T11:32:23.199Z,11.20
2022-12-08T11:34:58.402Z,13.50
2022-12-08T11:37:35.181Z,11.02
2022-12-08T11:40:14.106Z,10.50
2022-12-08T11:43:11.934Z,13.17
2022-12-08T11:45:41.582Z,10.63
2022-12-08T11:48:16.222Z,11.18
2022-12-08T11:50:51.906Z,11.57
2022-12-08T11:53:30.531Z,11.15
2022-12-08T11:56:03.833Z,11.17
2022-12-08T11:58:42.247Z,10.60
2022-12-08T12:01:20.907Z,12.55
2022-12-08T12:03:54.706Z,10.38
2022-12-08T12:06:55.720Z,10.32
2022-12-08T12:09:32.176Z,12.33
2022-12-08T12:12:13.583Z,11.95
2022-12-08T12:15:10.597Z,12.38
2022-12-08T12:17:59.729Z,12.23
2022-12-08T12:20:32.046Z,13.35
2022-12-08T12:23:07.319Z,13.60
2022-12-08T12:25:37.022Z,14.68
2022-12-08T12:28:07.770Z,13.45
2022-12-08T12:31:06.896Z,13.07
2022-12-08T12:33:35.391Z,13.32
2022-12-08T12:36:05.852Z,14.93
2022-12-08T12:38:36.875Z,12.90
2022-12-08T12:41:05.871Z,13.27
2022-12-08T12:43:35.639Z,15.10
2022-12-08T12:46:24.495Z,13.57
2022-12-08T12:48:52.270Z,12.90
2022-12-08T12:51:48.021Z,15.48
2022-12-08T12:54:27.182Z,13.55
2022-12-08T12:56:56.193Z,14.48
2022-12-08T13:00:06.024Z,16.77
2022-12-08T13:02:35.954Z,14.63
2022-12-08T13:05:08.254Z,13.50
2022-12-08T13:07:45.833Z,14.73
2022-12-08T13:10:16.339Z,15.95
2022-12-08T13:12:45.020Z,13.32
2022-12-08T13:15:20.041Z,17.23
2022-12-08T13:17:49.046Z,15.88
2022-12-08T13:20:22.462Z,13.02
2022-12-08T13:23:02.317Z,15.40
2022-12-08T13:25:44.318Z,13.93
2022-12-08T13:28:26.984Z,14.40
2022-12-08T13:31:01.358Z,14.52
2022-12-08T13:33:39.091Z,16.00
2022-12-08T13:36:05.931Z,14.82
2022-12-08T13:38:36.967Z,15.27
2022-12-08T13:41:09.379Z,14.43
2022-12-08T13:43:55.574Z,16.63
2022-12-08T13:47:24.741Z,15.60
2022-12-08T13:54:10.091Z,15.38
2022-12-08T13:58:26.202Z,15.15
2022-12-08T14:00:57.875Z,14.50
2022-12-08T14:03:24.839Z,17.33
2022-12-08T14:11:54.618Z,19.90
2022-12-08T14:15:01.122Z,18.85
2022-12-08T14:17:22.935Z,16.23
2022-12-08T14:20:05.778Z,15.98
2022-12-08T14:22:37.949Z,15.90
2022-12-08T14:25:07.612Z,19.52
2022-12-08T14:27:38.080Z,18.90
2022-12-08T14:30:29.311Z,18.75
2022-12-08T14:33:01.110Z,17.63
2022-12-08T14:35:27.813Z,16.23
2022-12-08T14:38:00.822Z,18.13
2022-12-08T14:40:41.988Z,16.88
2022-12-08T14:43:08.766Z,17.13
2022-12-08T14:45:48.153Z,17.60
2022-12-08T14:48:25.123Z,15.90
2022-12-08T14:51:04.133Z,16.60
2022-12-08T14:53:39.135Z,17.02
2022-12-08T14:56:25.955Z,17.25
2022-12-08T14:59:26.874Z,17.52
2022-12-08T15:02:09.264Z,19.00
2022-12-08T15:04:39.386Z,18.05
2022-12-08T15:07:16.117Z,18.88
2022-12-08T15:09:49.156Z,17.75
2022-12-08T15:12:26.142Z,17.98
2022-12-08T15:14:59.599Z,18.90
2022-12-08T15:17:40.930Z,19.35
2022-12-08T15:20:34.803Z,19.15
2022-12-08T15:23:03.397Z,17.85
2022-12-08T15:25:30.526Z,19.58
2022-12-08T15:27:57.807Z,18.10
2022-12-08T15:30:25.522Z,18.85
2022-12-08T15:32:53.291Z,17.88
2022-12-08T15:35:20.313Z,18.85
2022-12-08T15:37:47.077Z,17.33
2022-12-08T15:40:21.891Z,18.87
2022-12-08T15:42:49.492Z,18.67
2022-12-08T15:45:17.304Z,21.40
2022-12-08T15:47:45.136Z,18.73
2022-12-08T15:50:17.392Z,20.98
2022-12-08T15:52:44.283Z,19.30
2022-12-08T15:55:15.716Z,21.17
2022-12-08T15:58:44.706Z,20.88
2022-12-08T16:00:52.361Z,19.80
2022-12-08T16:05:17.824Z,22.63
2022-12-08T16:09:18.773Z,21.35
2022-12-08T16:12:05.856Z,20.90
2022-12-08T16:15:39.696Z,19.63
2022-12-08T16:17:21.267Z,20.95
2022-12-08T16:19:49.171Z,22.37
2022-12-08T16:25:23.356Z,22.63
2022-12-08T16:28:17.265Z,23.73
2022-12-08T16:30:42.140Z,20.92
2022-12-08T16:33:10.103Z,22.37
2022-12-08T16:35:36.948Z,22.48
2022-12-08T16:38:04.185Z,24.83
2022-12-08T16:40:31.434Z,22.70
2022-12-08T16:42:58.432Z,24.02
2022-12-08T16:45:30.233Z,21.00
2022-12-08T16:48:01.322Z,21.35
2022-12-08T16:50:31.319Z,23.42
2022-12-08T16:53:04.378Z,22.90
2022-12-08T16:55:33.332Z,23.40
2022-12-08T16:58:00.809Z,21.67
2022-12-08T17:00:29.654Z,22.38
2022-12-08T17:02:57.208Z,21.42
2022-12-08T17:05:26.017Z,21.15
2022-12-08T17:07:54.019Z,22.65
2022-12-08T17:10:25.831Z,23.40
2022-12-08T17:12:53.778Z,22.88
2022-12-08T17:15:23.176Z,22.88
2022-12-08T17:17:51.914Z,23.42
2022-12-08T17:20:24.812Z,25.10
2022-12-08T17:22:55.226Z,23.57
2022-12-08T17:25:22.355Z,24.17
2022-12-08T17:27:49.357Z,25.13
2022-12-08T17:30:17.019Z,22.48
2022-12-08T17:32:44.380Z,21.45
2022-12-08T17:35:11.929Z,24.17
2022-12-08T17:37:38.790Z,23.30
2022-12-08T17:40:06.795Z,24.75
2022-12-08T17:42:34.052Z,23.83
2022-12-08T17:45:01.541Z,21.65
2022-12-08T17:47:31.853Z,22.60
2022-12-08T17:49:59.808Z,23.13
2022-12-08T17:52:27.270Z,25.15
2022-12-08T17:54:54.112Z,22.75
2022-12-08T17:57:22.315Z,21.60
2022-12-08T17:59:49.435Z,26.80
2022-12-08T18:02:16.671Z,23.00
2022-12-08T18:04:43.980Z,24.27
2022-12-08T18:07:11.252Z,26.13
2022-12-08T18:09:38.635Z,26.23
2022-12-08T18:12:06.738Z,25.10
2022-12-08T18:14:35.138Z,24.92
2022-12-08T18:17:03.058Z,25.08
2022-12-08T18:19:30.257Z,24.67
2022-12-08T18:21:57.456Z,23.95
2022-12-08T18:24:25.067Z,21.83
2022-12-08T18:26:52.744Z,25.63
2022-12-08T18:29:22.033Z,24.95
2022-12-08T18:31:50.508Z,27.20
2022-12-08T18:34:17.824Z,24.83
2022-12-08T18:36:45.200Z,23.87
2022-12-08T18:39:27.151Z,22.38
2022-12-08T18:41:56.082Z,27.60
2022-12-08T18:44:23.385Z,25.05
2022-12-08T18:46:51.081Z,28.15
2022-12-08T18:49:20.199Z,25.07
2022-12-08T18:51:48.037Z,27.80
2022-12-08T18:54:15.118Z,26.27
2022-12-08T18:56:43.046Z,26.33
2022-12-08T18:59:12.787Z,27.05
2022-12-08T19:01:41.134Z,24.33
2022-12-08T19:06:57.218Z,27.20
2022-12-08T19:09:24.986Z,27.90
2022-12-08T19:11:52.741Z,29.95
2022-12-08T19:14:25.882Z,28.90
2022-12-08T19:16:55.856Z,28.58
2022-12-08T19:19:24.009Z,29.83
2022-12-08T19:21:51.849Z,28.98
2022-12-08T19:24:19.204Z,32.03
2022-12-08T19:26:46.731Z,30.20
2022-12-08T19:29:14.136Z,27.20
2022-12-08T19:31:42.950Z,27.27
2022-12-08T19:34:17.155Z,25.85
2022-12-08T19:36:45.601Z,27.80
2022-12-08T19:39:22.233Z,26.13
2022-12-08T19:41:52.988Z,27.77
2022-12-08T19:44:26.986Z,27.58
2022-12-08T19:46:55.077Z,27.55
2022-12-08T19:49:23.613Z,26.20
2022-12-08T19:51:51.571Z,29.03
2022-12-08T19:54:19.435Z,30.80
2022-12-08T19:56:48.825Z,30.13
2022-12-08T19:59:17.151Z,30.20
2022-12-08T20:01:46.909Z,29.67
2022-12-08T20:04:16.162Z,30.10
2022-12-08T20:06:46.420Z,30.33
2022-12-08T20:09:15.739Z,29.98
2022-12-08T20:11:43.387Z,30.73
2022-12-08T20:14:11.010Z,28.95
2022-12-08T20:16:39.185Z,29.00
2022-12-08T20:19:08.316Z,31.20
2022-12-08T20:21:41.835Z,35.70
2022-12-08T20:24:09.602Z,29.73
2022-12-08T20:26:37.164Z,30.42
2022-12-08T20:29:04.811Z,33.73
2022-12-08T20:31:33.513Z,32.53
2022-12-08T20:34:01.951Z,33.00
2022-12-08T20:36:29.673Z,30.05
2022-12-08T20:38:58.737Z,30.83
2022-12-08T20:41:26.322Z,25.80
2022-12-08T20:43:55.840Z,26.55
2022-12-08T20:46:25.502Z,24.42
2022-12-08T20:48:53.022Z,24.55
2022-12-08T20:51:20.611Z,22.55
2022-12-08T20:53:47.970Z,24.70
2022-12-08T20:56:20.595Z,24.02
2022-12-08T20:58:48.597Z,24.08
2022-12-08T21:01:19.586Z,24.60
2022-12-08T21:03:47.851Z,23.23
2022-12-08T21:06:15.830Z,23.87
2022-12-08T21:08:42.925Z,22.92
2022-12-08T21:11:10.919Z,20.83
2022-12-08T21:13:38.571Z,23.35
2022-12-08T21:16:06.749Z,21.10
2022-12-08T21:18:39.189Z,24.93
2022-12-08T21:21:11.363Z,22.17
2022-12-08T21:23:38.627Z,22.08
2022-12-08T21:26:17.500Z,22.23
2022-12-08T21:28:46.305Z,22.40
2022-12-08T21:31:17.064Z,21.67
2022-12-08T21:33:44.545Z,25.33
2022-12-08T21:36:14.099Z,20.45
2022-12-08T21:38:42.659Z,21.92
2022-12-08T21:41:13.650Z,21.35
2022-12-08T21:43:41.454Z,23.80
2022-12-08T21:46:15.337Z,21.40
2022-12-08T21:48:42.298Z,24.25
2022-12-08T21:51:09.357Z,20.60
2022-12-08T21:53:36.138Z,20.48
2022-12-08T21:56:08.392Z,20.97
2022-12-08T21:58:35.393Z,22.67
2022-12-08T22:01:10.408Z,22.20
2022-12-08T22:03:39.200Z,21.70
2022-12-08T22:06:08.253Z,20.50
2022-12-08T22:08:35.971Z,20.27
2022-12-08T22:11:03.485Z,21.25
2022-12-08T22:13:30.410Z,20.88
2022-12-08T22:15:58.473Z,20.27
2022-12-08T22:18:25.925Z,23.80
2022-12-08T22:20:53.650Z,22.83
2022-12-08T22:23:21.319Z,21.98
2022-12-08T22:26:00.126Z,21.50
2022-12-08T22:28:28.009Z,22.27
2022-12-08T22:30:55.030Z,21.52
2022-12-08T22:33:21.992Z,20.90
2022-12-08T22:35:57.378Z,18.50
2022-12-08T22:38:25.062Z,21.33
2022-12-08T22:40:52.260Z,20.00
2022-12-08T22:43:19.628Z,20.70
2022-12-08T22:45:46.894Z,21.87
2022-12-08T22:48:13.985Z,21.33
2022-12-08T22:50:41.968Z,19.98
2022-12-08T22:53:12.348Z,21.50
2022-12-08T22:55:44.169Z,22.35
2022-12-08T22:58:11.896Z,23.90
2022-12-08T23:00:39.651Z,22.33
2022-12-08T23:03:07.032Z,20.70
2022-12-08T23:05:35.966Z,24.60
2022-12-08T23:08:04.451Z,23.23
2022-12-08T23:10:32.722Z,23.37
2022-12-08T23:13:03.734Z,20.20
2022-12-08T23:15:31.806Z,21.67
2022-12-08T23:17:59.935Z,21.42
2022-12-08T23:20:27.185Z,20.83
2022-12-08T23:22:53.970Z,20.90
2022-12-08T23:25:20.975Z,20.30
2022-12-08T23:27:48.066Z,20.98
2022-12-08T23:30:15.988Z,21.95
2022-12-08T23:32:42.929Z,20.27
2022-12-08T23:35:10.162Z,20.63
2022-12-08T23:37:37.451Z,17.67
2022-12-08T23:40:05.501Z,19.00
2022-12-08T23:42:33.027Z,20.00
2022-12-08T23:44:59.866Z,20.02
2022-12-08T23:47:26.759Z,18.33
2022-12-08T23:49:53.571Z,18.17
2022-12-08T23:52:20.344Z,19.05
2022-12-08T23:54:50.313Z,16.77
2022-12-08T23:57:17.374Z,16.83
2022-12-08T23:59:44.320Z,18.47
